createdAt,value
2018-09-29T00:01:07.750Z,1.93
2018-09-29T00:03:35.773Z,3.20
2018-09-29T00:06:03.803Z,2.50
2018-09-29T00:08:31.819Z,1.90
2018-09-29T00:10:59.890Z,2.00
2018-09-29T00:13:27.912Z,1.83
2018-09-29T00:15:55.927Z,2.10
2018-09-29T00:18:23.933Z,2.33
2018-09-29T00:20:51.985Z,1.70
2018-09-29T00:23:20.982Z,2.43
2018-09-29T00:25:49.890Z,1.97
2018-09-29T00:28:17.909Z,1.80
2018-09-29T00:30:46.001Z,1.70
2018-09-29T00:33:14.050Z,1.53
2018-09-29T00:35:42.076Z,2.20
2018-09-29T00:38:10.078Z,2.20
2018-09-29T00:40:38.129Z,2.20
2018-09-29T00:43:06.142Z,1.80
2018-09-29T00:45:34.174Z,2.00
2018-09-29T00:48:02.193Z,1.90
2018-09-29T00:50:30.241Z,2.47
2018-09-29T00:52:58.245Z,2.00
2018-09-29T00:55:26.254Z,1.90
2018-09-29T00:57:54.256Z,1.97
2018-09-29T01:00:22.274Z,1.83
2018-09-29T01:02:50.265Z,1.83
2018-09-29T01:05:18.265Z,2.10
2018-09-29T01:07:46.284Z,2.37
2018-09-29T01:10:14.290Z,2.77
2018-09-29T01:12:42.305Z,2.43
2018-09-29T01:15:10.320Z,1.80
2018-09-29T01:17:38.324Z,2.27
2018-09-29T01:20:06.341Z,2.23
2018-09-29T01:22:34.341Z,2.03
2018-09-29T01:25:02.359Z,2.10
2018-09-29T01:27:30.357Z,2.23
2018-09-29T01:29:58.366Z,2.50
2018-09-29T01:32:26.373Z,1.80
2018-09-29T01:34:54.381Z,1.93
2018-09-29T01:37:22.398Z,2.00
2018-09-29T01:39:50.414Z,1.50
2018-09-29T01:42:18.425Z,1.73
2018-09-29T01:44:46.967Z,2.03
2018-09-29T01:47:14.998Z,2.10
2018-09-29T01:49:43.032Z,1.70
2018-09-29T01:52:11.042Z,2.47
2018-09-29T01:54:39.058Z,1.90
2018-09-29T01:57:07.078Z,2.27
2018-09-29T01:59:35.111Z,2.10
2018-09-29T02:02:03.118Z,1.93
2018-09-29T02:04:31.130Z,1.40
2018-09-29T02:06:59.138Z,1.60
2018-09-29T02:09:27.192Z,1.67
2018-09-29T02:11:55.242Z,1.70
2018-09-29T02:14:24.357Z,1.80
2018-09-29T02:16:52.369Z,2.03
2018-09-29T02:19:20.386Z,2.00
2018-09-29T02:21:48.464Z,2.10
2018-09-29T02:24:16.584Z,2.23
2018-09-29T02:26:44.584Z,1.53
2018-09-29T02:29:12.622Z,2.07
2018-09-29T02:31:40.685Z,2.07
2018-09-29T02:34:08.683Z,2.67
2018-09-29T02:36:36.708Z,1.83
2018-09-29T02:39:08.166Z,2.00
2018-09-29T02:41:36.189Z,1.53
2018-09-29T02:44:04.242Z,1.80
2018-09-29T02:46:32.253Z,2.30
2018-09-29T02:49:00.274Z,2.20
2018-09-29T02:51:28.289Z,2.27
2018-09-29T02:53:56.318Z,2.20
2018-09-29T02:56:24.350Z,2.20
2018-09-29T02:58:52.559Z,2.27
2018-09-29T03:01:20.575Z,2.57
2018-09-29T03:03:48.684Z,2.37
2018-09-29T03:06:16.756Z,3.00
2018-09-29T03:08:44.828Z,2.17
2018-09-29T03:11:12.847Z,2.07
2018-09-29T03:13:41.949Z,2.20
2018-09-29T03:16:09.994Z,3.20
2018-09-29T03:18:38.032Z,2.17
2018-09-29T03:21:06.107Z,2.43
2018-09-29T03:23:34.125Z,2.40
2018-09-29T03:26:02.122Z,2.27
2018-09-29T03:28:36.961Z,2.63
2018-09-29T03:31:05.006Z,2.33
2018-09-29T03:33:33.051Z,2.00
2018-09-29T03:36:01.066Z,1.80
2018-09-29T03:38:29.115Z,2.20
2018-09-29T03:40:57.152Z,2.07
2018-09-29T03:43:25.222Z,2.30
2018-09-29T03:45:53.265Z,2.60
2018-09-29T03:48:21.373Z,2.17
2018-09-29T03:50:49.404Z,2.63
2018-09-29T03:53:17.579Z,2.47
2018-09-29T03:55:45.610Z,2.30
2018-09-29T03:58:13.651Z,2.60
2018-09-29T04:00:41.679Z,1.95
2018-09-29T04:03:09.715Z,2.70
2018-09-29T04:05:37.726Z,3.17
2018-09-29T04:08:05.763Z,2.60
2018-09-29T04:10:33.819Z,3.23
2018-09-29T04:13:01.836Z,2.37
2018-09-29T04:15:29.900Z,3.10
2018-09-29T04:17:58.115Z,3.00
2018-09-29T04:20:26.162Z,3.50
2018-09-29T04:22:54.174Z,2.60
2018-09-29T04:25:22.288Z,2.67
2018-09-29T04:27:50.353Z,2.10
2018-09-29T04:30:18.394Z,2.00
2018-09-29T04:32:46.424Z,2.00
2018-09-29T04:35:14.486Z,2.37
2018-09-29T04:37:42.539Z,1.97
2018-09-29T04:40:10.552Z,2.80
2018-09-29T04:42:38.588Z,2.57
2018-09-29T04:45:06.622Z,3.00
2018-09-29T04:47:34.658Z,2.50
2018-09-29T04:50:02.720Z,3.30
2018-09-29T04:52:30.754Z,5.00
2018-09-29T04:54:58.799Z,4.83
2018-09-29T04:57:26.834Z,7.80
2018-09-29T04:59:54.882Z,9.07
2018-09-29T05:02:22.955Z,10.20
2018-09-29T05:04:51.054Z,9.00
2018-09-29T05:07:19.169Z,7.77
2018-09-29T05:09:47.282Z,6.10
2018-09-29T05:12:15.336Z,6.50
2018-09-29T05:14:43.363Z,6.40
2018-09-29T05:17:11.379Z,4.93
2018-09-29T05:19:39.406Z,5.40
2018-09-29T05:22:07.551Z,5.93
2018-09-29T05:24:35.553Z,4.53
2018-09-29T05:27:03.594Z,4.97
2018-09-29T05:29:31.673Z,4.83
2018-09-29T05:31:59.713Z,4.10
2018-09-29T05:34:27.757Z,3.23
2018-09-29T05:36:55.882Z,4.00
2018-09-29T05:39:23.914Z,3.30
2018-09-29T05:41:51.946Z,3.63
2018-09-29T05:44:19.998Z,4.20
2018-09-29T05:46:48.009Z,4.13
2018-09-29T05:49:16.025Z,3.70
2018-09-29T05:51:44.142Z,3.80
2018-09-29T05:54:12.203Z,3.00
2018-09-29T05:56:40.229Z,3.10
2018-09-29T05:59:08.263Z,3.27
2018-09-29T06:01:36.306Z,3.60
2018-09-29T06:04:04.341Z,3.60
2018-09-29T06:06:33.405Z,3.37
2018-09-29T06:09:02.517Z,2.67
2018-09-29T06:11:30.536Z,3.40
2018-09-29T06:13:58.853Z,2.53
2018-09-29T06:16:26.923Z,2.80
2018-09-29T06:18:55.018Z,2.17
2018-09-29T06:21:23.030Z,2.60
2018-09-29T06:23:51.070Z,2.10
2018-09-29T06:26:19.171Z,2.73
2018-09-29T06:28:47.279Z,2.10
2018-09-29T06:31:15.345Z,2.30
2018-09-29T06:33:43.411Z,2.70
2018-09-29T06:36:11.534Z,2.73
2018-09-29T06:38:39.620Z,2.50
2018-09-29T06:41:07.669Z,3.17
2018-09-29T06:43:35.715Z,3.67
2018-09-29T06:46:03.746Z,4.13
2018-09-29T06:48:31.853Z,3.20
2018-09-29T06:50:59.869Z,3.30
2018-09-29T06:53:27.934Z,3.20
2018-09-29T06:55:55.969Z,4.10
2018-09-29T06:58:23.994Z,3.17
2018-09-29T07:00:52.034Z,4.00
2018-09-29T07:03:21.087Z,3.20
2018-09-29T07:05:49.300Z,3.27
2018-09-29T07:08:17.334Z,4.17
2018-09-29T07:10:45.389Z,2.87
2018-09-29T07:13:13.478Z,2.67
2018-09-29T07:15:41.517Z,3.00
2018-09-29T07:18:09.599Z,3.53
2018-09-29T07:20:37.714Z,2.90
2018-09-29T07:23:05.742Z,3.03
2018-09-29T07:25:33.942Z,2.93
2018-09-29T07:28:01.947Z,2.87
2018-09-29T07:30:30.001Z,2.97
2018-09-29T07:32:58.065Z,2.60
2018-09-29T07:35:26.114Z,3.60
2018-09-29T07:37:54.251Z,2.80
2018-09-29T07:40:22.282Z,3.23
2018-09-29T07:42:50.354Z,3.33
2018-09-29T07:45:18.422Z,3.33
2018-09-29T07:47:46.487Z,2.77
2018-09-29T07:50:14.585Z,4.23
2018-09-29T07:52:43.634Z,3.30
2018-09-29T07:55:11.717Z,3.30
2018-09-29T07:57:39.725Z,3.03
2018-09-29T08:00:07.914Z,2.30
2018-09-29T08:02:35.975Z,2.97
2018-09-29T08:05:04.013Z,3.30
2018-09-29T08:07:32.035Z,2.97
2018-09-29T08:10:00.115Z,3.30
2018-09-29T08:12:28.259Z,2.50
2018-09-29T08:14:56.395Z,2.87
2018-09-29T08:17:24.430Z,2.30
2018-09-29T08:19:52.502Z,2.77
2018-09-29T08:22:20.545Z,3.60
2018-09-29T08:24:48.594Z,3.47
2018-09-29T08:27:16.604Z,2.53
2018-09-29T08:29:44.700Z,2.60
2018-09-29T08:32:12.784Z,2.50
2018-09-29T08:34:40.773Z,2.77
2018-09-29T08:37:08.771Z,2.20
2018-09-29T08:39:36.805Z,3.10
2018-09-29T08:42:04.841Z,3.10
2018-09-29T08:44:32.878Z,2.90
2018-09-29T08:47:00.906Z,2.07
2018-09-29T08:49:29.927Z,3.10
2018-09-29T08:51:57.946Z,2.40
2018-09-29T08:54:25.979Z,2.83
2018-09-29T08:56:54.015Z,2.57
2018-09-29T08:59:22.065Z,2.97
2018-09-29T09:01:50.078Z,3.57
2018-09-29T09:04:18.145Z,3.20
2018-09-29T09:06:47.254Z,2.90
2018-09-29T09:09:15.327Z,2.60
2018-09-29T09:11:43.356Z,3.20
2018-09-29T09:14:11.670Z,2.50
2018-09-29T09:16:39.681Z,2.57
2018-09-29T09:19:07.742Z,3.23
2018-09-29T09:21:35.811Z,2.70
2018-09-29T09:24:03.846Z,3.43
2018-09-29T09:26:31.880Z,2.73
2018-09-29T09:28:59.930Z,5.03
2018-09-29T09:31:28.010Z,2.83
2018-09-29T09:33:56.085Z,3.53
2018-09-29T09:36:24.121Z,3.00
2018-09-29T09:38:52.181Z,2.37
2018-09-29T09:41:20.233Z,2.93
2018-09-29T09:43:48.303Z,3.07
2018-09-29T09:46:16.395Z,2.20
2018-09-29T09:48:44.438Z,2.87
2018-09-29T09:51:12.485Z,2.80
2018-09-29T09:53:40.499Z,2.27
2018-09-29T09:56:08.595Z,2.50
2018-09-29T09:58:37.267Z,2.87
2018-09-29T10:01:10.865Z,1.63
2018-09-29T10:03:38.937Z,2.40
2018-09-29T10:06:06.966Z,3.10
2018-09-29T10:08:35.018Z,2.67
2018-09-29T10:11:03.057Z,2.10
2018-09-29T10:13:31.092Z,2.07
2018-09-29T10:15:59.175Z,3.00
2018-09-29T10:18:27.199Z,2.20
2018-09-29T10:20:55.246Z,3.37
2018-09-29T10:23:23.287Z,1.93
2018-09-29T10:25:51.359Z,2.20
2018-09-29T10:28:19.369Z,3.23
2018-09-29T10:30:47.459Z,2.13
2018-09-29T10:33:15.465Z,2.70
2018-09-29T10:35:43.486Z,1.87
2018-09-29T10:38:11.497Z,1.80
2018-09-29T10:40:39.565Z,1.60
2018-09-29T10:43:07.605Z,1.80
2018-09-29T10:45:35.674Z,1.83
2018-09-29T10:48:03.703Z,2.10
2018-09-29T10:50:31.731Z,2.23
2018-09-29T10:52:59.780Z,2.37
2018-09-29T10:55:27.914Z,1.90
2018-09-29T10:57:56.002Z,2.40
2018-09-29T11:00:24.118Z,2.90
2018-09-29T11:02:52.154Z,1.73
2018-09-29T11:05:20.193Z,2.00
2018-09-29T11:07:48.232Z,1.43
2018-09-29T11:10:16.254Z,1.67
2018-09-29T11:12:44.298Z,1.90
2018-09-29T11:15:12.340Z,2.20
2018-09-29T11:17:40.370Z,4.50
2018-09-29T11:20:08.417Z,3.00
2018-09-29T11:22:36.484Z,3.87
2018-09-29T11:25:04.574Z,1.90
2018-09-29T11:27:32.674Z,1.50
2018-09-29T11:30:00.698Z,1.63
2018-09-29T11:32:28.778Z,1.40
2018-09-29T11:34:56.806Z,1.93
2018-09-29T11:37:24.821Z,1.23
2018-09-29T11:39:52.848Z,2.73
2018-09-29T11:42:20.910Z,10.33
2018-09-29T11:44:49.018Z,2.17
2018-09-29T11:47:16.999Z,1.20
2018-09-29T11:49:45.018Z,1.37
2018-09-29T11:52:13.054Z,1.70
2018-09-29T11:54:41.075Z,1.77
2018-09-29T11:57:09.145Z,1.40
2018-09-29T11:59:37.189Z,1.10
2018-09-29T12:02:05.237Z,2.17
2018-09-29T12:04:33.220Z,1.00
2018-09-29T12:07:01.317Z,1.50
2018-09-29T12:09:29.293Z,1.30
2018-09-29T12:11:57.388Z,1.17
2018-09-29T12:14:25.578Z,1.30
2018-09-29T12:16:53.639Z,1.20
2018-09-29T12:19:21.755Z,1.20
2018-09-29T12:21:49.793Z,1.27
2018-09-29T12:24:17.831Z,1.57
2018-09-29T12:26:45.856Z,1.70
2018-09-29T12:29:13.879Z,1.80
2018-09-29T12:31:41.940Z,1.30
2018-09-29T12:34:09.965Z,1.10
2018-09-29T12:36:38.046Z,1.13
2018-09-29T12:39:07.422Z,1.20
2018-09-29T12:41:35.478Z,1.20
2018-09-29T12:44:03.492Z,1.10
2018-09-29T12:46:31.570Z,1.23
2018-09-29T12:48:59.694Z,1.20
2018-09-29T12:51:27.805Z,1.10
2018-09-29T12:53:56.339Z,1.13
2018-09-29T12:56:24.568Z,1.63
2018-09-29T12:58:52.730Z,1.80
2018-09-29T13:01:20.868Z,1.43
2018-09-29T13:03:48.910Z,1.60
2018-09-29T13:06:16.977Z,1.20
2018-09-29T13:08:45.320Z,1.30
2018-09-29T13:11:13.371Z,1.47
2018-09-29T13:13:41.427Z,1.07
2018-09-29T13:16:09.566Z,1.07
2018-09-29T13:18:37.769Z,1.20
2018-09-29T13:21:05.806Z,1.13
2018-09-29T13:23:33.837Z,1.63
2018-09-29T13:26:02.154Z,1.17
2018-09-29T13:28:30.273Z,1.10
2018-09-29T13:30:58.458Z,1.47
2018-09-29T13:33:26.549Z,1.73
2018-09-29T13:35:54.785Z,1.10
2018-09-29T13:38:23.045Z,1.33
2018-09-29T13:40:51.085Z,1.10
2018-09-29T13:43:19.363Z,1.17
2018-09-29T13:45:47.379Z,1.00
2018-09-29T13:48:15.427Z,1.30
2018-09-29T13:50:43.465Z,1.33
2018-09-29T13:53:11.754Z,1.23
2018-09-29T13:55:39.782Z,1.33
2018-09-29T13:58:07.872Z,1.00
2018-09-29T14:00:35.880Z,1.80
2018-09-29T14:03:03.926Z,1.87
2018-09-29T14:05:31.988Z,1.50
2018-09-29T14:08:00.039Z,1.50
2018-09-29T14:10:28.094Z,1.83
2018-09-29T14:12:56.337Z,1.30
2018-09-29T14:15:24.440Z,1.00
2018-09-29T14:17:52.497Z,1.10
2018-09-29T14:20:20.554Z,1.30
2018-09-29T14:22:48.597Z,2.47
2018-09-29T14:25:17.768Z,1.00
2018-09-29T14:27:45.924Z,1.37
2018-09-29T14:30:14.124Z,1.60
2018-09-29T14:32:42.211Z,1.30
2018-09-29T14:35:10.425Z,1.20
2018-09-29T14:37:39.557Z,1.43
2018-09-29T14:40:07.773Z,1.20
2018-09-29T14:42:35.855Z,1.20
2018-09-29T14:45:04.117Z,1.50
2018-09-29T14:47:32.409Z,1.87
2018-09-29T14:50:00.450Z,1.13
2018-09-29T14:52:28.555Z,1.50
2018-09-29T14:54:56.562Z,1.03
2018-09-29T14:57:24.669Z,1.40
2018-09-29T14:59:52.721Z,1.70
2018-09-29T15:02:20.793Z,1.20
2018-09-29T15:04:48.821Z,1.20
2018-09-29T15:07:16.846Z,1.40
2018-09-29T15:09:44.935Z,1.20
2018-09-29T15:12:12.991Z,1.33
2018-09-29T15:14:41.161Z,1.10
2018-09-29T15:17:09.269Z,1.20
2018-09-29T15:19:37.316Z,2.13
2018-09-29T15:22:05.654Z,1.30
2018-09-29T15:24:33.790Z,2.10
2018-09-29T15:27:01.928Z,1.30
2018-09-29T15:29:30.280Z,1.47
2018-09-29T15:31:58.424Z,1.30
2018-09-29T15:34:26.433Z,1.57
2018-09-29T15:36:54.516Z,7.07
2018-09-29T15:39:22.546Z,2.53
2018-09-29T15:41:50.635Z,1.83
2018-09-29T15:44:18.733Z,2.03
2018-09-29T15:46:46.749Z,1.97
2018-09-29T15:49:14.773Z,1.80
2018-09-29T15:51:42.829Z,1.43
2018-09-29T15:54:11.030Z,1.43
2018-09-29T15:56:39.100Z,1.90
2018-09-29T15:59:07.179Z,1.80
2018-09-29T16:01:35.289Z,2.10
2018-09-29T16:04:03.342Z,2.00
2018-09-29T16:06:31.396Z,1.30
2018-09-29T16:08:59.709Z,1.30
2018-09-29T16:11:27.747Z,1.13
2018-09-29T16:13:55.790Z,1.30
2018-09-29T16:16:23.900Z,1.57
2018-09-29T16:18:51.882Z,1.70
2018-09-29T16:21:19.934Z,1.47
2018-09-29T16:23:48.013Z,2.57
2018-09-29T16:26:16.070Z,1.60
2018-09-29T16:28:44.299Z,2.10
2018-09-29T16:31:12.486Z,2.50
2018-09-29T16:33:40.511Z,1.90
2018-09-29T16:36:08.550Z,2.07
2018-09-29T16:38:36.588Z,1.83
2018-09-29T16:41:04.713Z,1.50
2018-09-29T16:43:32.797Z,1.43
2018-09-29T16:46:00.782Z,1.47
2018-09-29T16:48:28.850Z,2.30
2018-09-29T16:50:56.949Z,3.33
2018-09-29T16:53:24.994Z,3.87
2018-09-29T16:55:53.046Z,5.33
2018-09-29T16:58:21.110Z,4.97
2018-09-29T17:00:49.289Z,4.17
2018-09-29T17:03:17.373Z,3.50
2018-09-29T17:05:45.411Z,5.00
2018-09-29T17:08:13.446Z,2.90
2018-09-29T17:10:41.494Z,2.33
2018-09-29T17:13:09.510Z,3.10
2018-09-29T17:15:37.545Z,3.83
2018-09-29T17:18:05.586Z,3.13
2018-09-29T17:20:33.654Z,3.10
2018-09-29T17:23:01.721Z,2.87
2018-09-29T17:25:29.745Z,3.33
2018-09-29T17:27:57.785Z,2.97
2018-09-29T17:30:25.805Z,5.90
2018-09-29T17:32:53.841Z,5.57
2018-09-29T17:35:21.946Z,7.57
2018-09-29T17:37:49.990Z,6.87
2018-09-29T17:40:18.018Z,7.40
2018-09-29T17:42:46.038Z,4.63
2018-09-29T17:45:14.071Z,4.80
2018-09-29T17:47:42.115Z,5.20
2018-09-29T17:50:10.492Z,3.10
2018-09-29T17:52:38.572Z,3.53
2018-09-29T17:55:06.619Z,2.70
2018-09-29T17:57:34.649Z,2.50
2018-09-29T18:00:02.714Z,1.57
2018-09-29T18:02:30.780Z,2.20
2018-09-29T18:04:58.987Z,2.00
2018-09-29T18:07:27.068Z,2.20
2018-09-29T18:09:55.130Z,2.00
2018-09-29T18:12:23.146Z,2.20
2018-09-29T18:14:51.249Z,1.67
2018-09-29T18:17:19.306Z,3.33
2018-09-29T18:19:47.430Z,1.80
2018-09-29T18:22:15.638Z,1.47
2018-09-29T18:24:43.727Z,1.70
2018-09-29T18:27:12.038Z,2.30
2018-09-29T18:29:40.106Z,2.00
2018-09-29T18:32:08.643Z,1.60
2018-09-29T18:34:36.823Z,2.27
2018-09-29T18:37:05.010Z,1.70
2018-09-29T18:39:33.135Z,1.70
2018-09-29T18:42:01.296Z,2.50
2018-09-29T18:44:29.354Z,2.17
2018-09-29T18:46:57.646Z,2.20
2018-09-29T18:49:25.867Z,2.37
2018-09-29T18:51:54.310Z,2.50
2018-09-29T18:54:22.395Z,1.73
2018-09-29T18:56:50.650Z,1.83
2018-09-29T18:59:18.782Z,2.30
2018-09-29T19:01:47.136Z,2.03
2018-09-29T19:04:15.314Z,1.90
2018-09-29T19:06:43.489Z,1.90
2018-09-29T19:09:13.084Z,2.13
2018-09-29T19:11:41.972Z,2.70
2018-09-29T19:14:10.129Z,2.90
2018-09-29T19:16:38.237Z,1.80
2018-09-29T19:19:06.700Z,3.10
2018-09-29T19:21:34.900Z,2.97
2018-09-29T19:24:03.062Z,2.43
2018-09-29T19:26:31.169Z,2.10
2018-09-29T19:28:59.206Z,2.10
2018-09-29T19:31:27.338Z,2.20
2018-09-29T19:33:55.470Z,2.57
2018-09-29T19:36:23.553Z,2.90
2018-09-29T19:38:51.654Z,3.03
2018-09-29T19:41:19.816Z,3.20
2018-09-29T19:43:47.899Z,2.63
2018-09-29T19:46:16.200Z,2.37
2018-09-29T19:48:44.343Z,2.97
2018-09-29T19:51:12.652Z,2.57
2018-09-29T19:53:40.749Z,2.93
2018-09-29T19:56:08.893Z,2.80
2018-09-29T19:58:37.938Z,2.70
2018-09-29T20:01:06.130Z,2.17
2018-09-29T20:03:34.203Z,2.73
2018-09-29T20:06:03.317Z,2.07
2018-09-29T20:08:31.346Z,2.30
2018-09-29T20:10:59.404Z,2.27
2018-09-29T20:13:27.465Z,2.20
2018-09-29T20:15:55.697Z,3.30
2018-09-29T20:18:23.757Z,2.30
2018-09-29T20:20:51.809Z,3.47
2018-09-29T20:23:19.829Z,3.03
2018-09-29T20:25:47.838Z,3.97
2018-09-29T20:28:15.891Z,4.13
2018-09-29T20:30:43.910Z,3.30
2018-09-29T20:33:11.962Z,4.37
2018-09-29T20:35:40.035Z,3.80
2018-09-29T20:38:08.073Z,4.17
2018-09-29T20:40:36.294Z,6.43
2018-09-29T20:43:04.318Z,6.97
2018-09-29T20:45:32.381Z,6.37
2018-09-29T20:48:00.401Z,5.70
2018-09-29T20:50:28.427Z,4.67
2018-09-29T20:52:56.521Z,4.60
2018-09-29T20:55:24.598Z,3.27
2018-09-29T20:57:52.602Z,3.30
2018-09-29T21:00:20.686Z,3.17
2018-09-29T21:02:48.710Z,2.83
2018-09-29T21:05:16.746Z,1.90
2018-09-29T21:07:44.809Z,2.57
2018-09-29T21:10:12.833Z,1.80
2018-09-29T21:12:40.875Z,2.03
2018-09-29T21:15:08.945Z,2.33
2018-09-29T21:17:37.010Z,2.50
2018-09-29T21:20:05.522Z,2.60
2018-09-29T21:22:33.681Z,2.40
2018-09-29T21:25:01.696Z,2.40
2018-09-29T21:27:29.877Z,2.20
2018-09-29T21:29:57.881Z,1.90
2018-09-29T21:32:25.938Z,2.20
2018-09-29T21:34:53.973Z,2.60
2018-09-29T21:37:21.981Z,2.07
2018-09-29T21:39:50.001Z,2.50
2018-09-29T21:42:18.108Z,2.63
2018-09-29T21:44:46.117Z,2.40
2018-09-29T21:47:14.158Z,2.60
2018-09-29T21:49:42.284Z,2.20
2018-09-29T21:52:10.354Z,2.47
2018-09-29T21:54:38.424Z,3.10
2018-09-29T21:57:06.731Z,2.67
2018-09-29T21:59:34.777Z,3.17
2018-09-29T22:02:02.777Z,3.13
2018-09-29T22:04:30.907Z,2.80
2018-09-29T22:06:58.930Z,2.60
2018-09-29T22:09:26.975Z,3.57
2018-09-29T22:11:54.989Z,2.87
2018-09-29T22:14:23.089Z,2.90
2018-09-29T22:16:51.162Z,2.53
2018-09-29T22:19:19.235Z,2.73
2018-09-29T22:21:47.234Z,3.10
2018-09-29T22:24:15.304Z,3.03
2018-09-29T22:26:43.301Z,2.77
2018-09-29T22:29:11.336Z,3.00
2018-09-29T22:31:39.397Z,3.20
2018-09-29T22:34:07.432Z,3.10
2018-09-29T22:36:35.541Z,3.23
2018-09-29T22:39:04.340Z,3.10
2018-09-29T22:41:32.360Z,3.50
2018-09-29T22:44:00.431Z,4.30
2018-09-29T22:46:28.482Z,5.47
2018-09-29T22:48:56.550Z,4.80
2018-09-29T22:51:24.559Z,6.20
2018-09-29T22:53:52.603Z,6.57
2018-09-29T22:56:20.669Z,5.70
2018-09-29T22:58:48.714Z,5.47
2018-09-29T23:01:16.847Z,6.47
2018-09-29T23:03:44.948Z,9.80
2018-09-29T23:06:12.965Z,7.80
2018-09-29T23:08:41.013Z,8.70
2018-09-29T23:11:09.038Z,7.47
2018-09-29T23:13:37.105Z,7.80
2018-09-29T23:16:05.153Z,6.90
2018-09-29T23:18:33.213Z,6.03
2018-09-29T23:21:01.282Z,5.40
2018-09-29T23:23:29.341Z,5.40
2018-09-29T23:25:57.480Z,4.87
2018-09-29T23:28:25.664Z,4.47
2018-09-29T23:30:53.673Z,4.73
2018-09-29T23:33:21.774Z,3.70
2018-09-29T23:35:49.896Z,4.10
2018-09-29T23:38:18.046Z,3.17
2018-09-29T23:40:46.117Z,3.23
2018-09-29T23:43:14.142Z,3.17
2018-09-29T23:45:42.179Z,3.07
2018-09-29T23:48:10.231Z,3.80
2018-09-29T23:50:38.373Z,3.60
2018-09-29T23:53:06.425Z,3.00
2018-09-29T23:55:34.450Z,3.40
2018-09-29T23:58:02.615Z,3.00
